This is the latest recevied weather packets stored in our database for station/object N5KJT. If no packets are shown the sender has not sent any weather packets the latest 10 day(s).
| Time | Temp. | Humidity | Pressure | Rain* | Wind** | Luminosity | Snow |
|---|---|---|---|---|---|---|---|
| 1787795716 | 23.33° C | 51% | 1027 hPa | 0 mm | - | 0 W/m² | - |
| 1787795416 | 23.33° C | 52% | 1026.9 hPa | 0 mm | - | 0 W/m² | - |
| 1787795116 | 23.33° C | 51% | 1026.9 hPa | 0 mm | - | 0 W/m² | - |
| 1787794816 | 23.33° C | 54% | 1026.8 hPa | 0 mm | - | 0 W/m² | - |
| 1787794516 | 23.89° C | 53% | 1026.7 hPa | 0 mm | - | 2 W/m² | - |
| 1787794216 | 23.89° C | 50% | 1026.5 hPa | 0 mm | - | 12 W/m² | - |
| 1787793919 | 23.89° C | 50% | 1026.4 hPa | 0 mm | - | 21 W/m² | - |
| 1787793616 | 24.44° C | 49% | 1026.4 hPa | 0 mm | - | 30 W/m² | - |
| 1787793382 | 24.44° C | 45% | - | 0 mm | - | 33 W/m² | - |
| 1787793381 | 24.44° C | 44% | - | 0 mm | - | 34 W/m² | - |
| 1787793016 | 24.44° C | 44% | 1026.1 hPa | 0 mm | - | 34 W/m² | - |
| 1787792716 | 24.44° C | 43% | 1026.1 hPa | 0 mm | - | 34 W/m² | - |
| 1787792416 | 25° C | 44% | 1026.1 hPa | 0 mm | - | 28 W/m² | - |
| 1787792116 | 25° C | 43% | 1026.3 hPa | 0 mm | - | 23 W/m² | - |
| 1787791816 | 25° C | 41% | 1026.5 hPa | 0 mm | - | 19 W/m² | - |
| 1787791516 | 25° C | 39% | 1026.6 hPa | 0 mm | - | 16 W/m² | - |
| 1787791216 | 25° C | 37% | 1026.7 hPa | 0 mm | - | 14 W/m² | - |
| 1787790916 | 25° C | 40% | 1026.6 hPa | 0 mm | - | 12 W/m² | - |
| 1787790616 | 26.11° C | 41% | 1026.4 hPa | 0 mm | - | 12 W/m² | - |
| 1787790316 | 26.67° C | 35% | 1026.3 hPa | 0 mm | - | 12 W/m² | - |
| 1787790047 | 27.22° C | 31% | - | 0 mm | - | 15 W/m² | - |
| 1787789716 | 27.22° C | 33% | 1026.1 hPa | 0 mm | - | 18 W/m² | - |
| 1787789416 | 27.22° C | 39% | 1026.1 hPa | 0 mm | - | 23 W/m² | - |
| 1787789116 | 27.22° C | 39% | 1025.9 hPa | 0 mm | - | 31 W/m² | - |
| 1787788816 | 27.78° C | 38% | 1025.7 hPa | 0 mm | - | 42 W/m² | - |
* Rain latest hour (hover to see other rain measurements)
** Current wind speed in m/s (hover to see current wind gust speed)